White Point — IBAE — position and weather

sailwx.info

Track history (hours):
 
Tides and Currents Weather Stations Pressure Air Temp Water Temp Dewpoint Dewpoint Depression Visibility Wind Speed Wind Dir Waves Ship Positions

White Point

Last reported at 2016-Feb-07 09:28 UTC. Time now 2016-Feb-10 12:57 UTC.
Position N 44°28' E 012°33'.

Length 183 m; draft 1.1 m.

Type: Ship (hazmat cat D). MMSI: 247087400.

Date/timePositionNaut miles runAvg speedWind from/ knotsBaromVisibWave heightAir tempDewpointWater temp
2016-Feb-07 09:28N 44°28' E 012°33'1112.2
2016-Feb-07 08:33N 44°30' E 012°17'3 0.2
2016-Feb-06 17:16N 44°27' E 012°15'30 7.1
2016-Feb-06 13:06N 44°48' E 012°44'814.2
2016-Feb-06 12:33N 44°55' E 012°47'1313.5
2016-Feb-06 11:33N 45°07' E 012°39'1413.6
2016-Feb-06 10:33N 45°17' E 012°26'10 9.9
2016-Feb-06 09:33N 45°24' E 012°16'3 2.8
2016-Feb-06 08:32N 45°26' E 012°14'0 0.0
2016-Feb-06 07:33N 45°26' E 012°14'0 0.0
2016-Feb-06 06:33N 45°26' E 012°14'0 0.0
2016-Feb-06 05:33N 45°26' E 012°14'0 0.0
2016-Feb-06 04:34N 45°26' E 012°14'0 0.0
2016-Feb-06 03:33N 45°26' E 012°14'0 0.0
2016-Feb-06 02:34N 45°26' E 012°14'0 0.0
2016-Feb-06 01:33N 45°26' E 012°14'0 0.0
2016-Feb-06 00:33N 45°26' E 012°14'0 0.0
2016-Feb-05 23:34N 45°26' E 012°14'0 0.0
2016-Feb-05 22:33N 45°26' E 012°14'0 0.0
2016-Feb-05 21:33N 45°26' E 012°14'0 0.0
2016-Feb-05 20:33N 45°26' E 012°14'0 0.0
2016-Feb-05 19:33N 45°26' E 012°14'0 0.0
2016-Feb-05 18:34N 45°26' E 012°14'0 0.0
2016-Feb-05 17:34N 45°26' E 012°14'0 0.0
2016-Feb-05 16:34N 45°26' E 012°14'0 0.0
2016-Feb-05 15:34N 45°26' E 012°14'0 0.0
2016-Feb-05 14:33N 45°26' E 012°14'0 0.0
2016-Feb-05 13:33N 45°26' E 012°14'0 0.0
2016-Feb-05 12:33N 45°26' E 012°14'0 0.0
2016-Feb-05 11:33N 45°26' E 012°14'0 0.0
2016-Feb-05 10:33N 45°26' E 012°14'0 0.0
2016-Feb-05 09:33N 45°26' E 012°14'0 0.0
2016-Feb-05 08:33N 45°26' E 012°14'0 0.0
2016-Feb-05 07:33N 45°26' E 012°14'5 5.2
2016-Feb-05 06:33N 45°21' E 012°15'6 5.9
2016-Feb-05 05:32N 45°20' E 012°24'0 0.0
2016-Feb-05 04:32N 45°20' E 012°24'0 0.0
2016-Feb-05 03:32N 45°20' E 012°24'0 0.0
2016-Feb-05 02:29N 45°20' E 012°24'0 0.0
2016-Feb-05 01:32N 45°20' E 012°24'0 0.0
2016-Feb-05 00:33N 45°20' E 012°24'0 0.0
2016-Feb-04 23:32N 45°20' E 012°24'0 0.0
2016-Feb-04 22:32N 45°20' E 012°24'0 0.0
2016-Feb-04 21:32N 45°20' E 012°24'0 0.0
2016-Feb-04 20:32N 45°20' E 012°24'0 0.0
2016-Feb-04 19:32N 45°20' E 012°24'0 0.0
2016-Feb-04 18:32N 45°20' E 012°24'0 0.0
2016-Feb-04 17:32N 45°20' E 012°24'0 0.0
2016-Feb-04 16:32N 45°20' E 012°24'0 0.0
2016-Feb-04 15:32N 45°20' E 012°24'0 0.0
2016-Feb-04 14:32N 45°20' E 012°24'0 0.0
2016-Feb-04 13:32N 45°20' E 012°24'0 0.1
2016-Feb-04 12:20N 45°20' E 012°24'0 0.1
2016-Feb-04 11:32N 45°20' E 012°24'2 2.1
2016-Feb-04 10:34N 45°18' E 012°24'9 8.5
2016-Feb-04 09:33N 45°24' E 012°16'3 3.2
2016-Feb-04 08:33N 45°27' E 012°16'0 0.0
2016-Feb-04 07:33N 45°27' E 012°16'0 0.0
2016-Feb-04 06:33N 45°27' E 012°16'0 0.0
2016-Feb-04 05:33N 45°27' E 012°16'0 0.0
2016-Feb-04 04:33N 45°27' E 012°16'0 0.0
2016-Feb-04 03:33N 45°27' E 012°16'0 0.0
2016-Feb-04 02:33N 45°27' E 012°16'0 0.0
2016-Feb-04 01:33N 45°27' E 012°16'0 0.0
2016-Feb-04 00:33N 45°27' E 012°16'0 0.0
2016-Feb-03 23:33N 45°27' E 012°16'0 0.0
2016-Feb-03 22:33N 45°27' E 012°16'0 0.0
2016-Feb-03 21:33N 45°27' E 012°16'0 0.0
2016-Feb-03 20:33N 45°27' E 012°16'0 0.0
2016-Feb-03 19:33N 45°27' E 012°16'0 0.0
2016-Feb-03 18:33N 45°27' E 012°16'0 0.0
2016-Feb-03 17:33N 45°27' E 012°16'0 0.0
2016-Feb-03 16:33N 45°27' E 012°16'0 0.0
2016-Feb-03 15:33N 45°27' E 012°16'0 0.0
2016-Feb-03 14:33N 45°27' E 012°16'0 0.0
2016-Feb-03 13:33N 45°27' E 012°16'0 0.0
2016-Feb-03 12:30N 45°27' E 012°16'0 0.0
2016-Feb-03 11:33N 45°27' E 012°16'0 0.0
2016-Feb-03 09:30N 45°27' E 012°16'0 0.0
2016-Feb-03 08:33N 45°27' E 012°16'0 0.0
2016-Feb-03 07:30N 45°27' E 012°16'0 0.0
2016-Feb-03 06:33N 45°27' E 012°16'0 0.0
2016-Feb-03 05:33N 45°27' E 012°16'0 0.0
2016-Feb-03 04:33N 45°27' E 012°16'0 0.0
2016-Feb-03 03:33N 45°27' E 012°16'0 0.0
2016-Feb-03 02:33N 45°27' E 012°16'0 0.0
2016-Feb-03 01:33N 45°27' E 012°16'0 0.0
2016-Feb-03 00:33N 45°27' E 012°16'0 0.0
2016-Feb-02 23:33N 45°27' E 012°16'0 0.0
2016-Feb-02 22:33N 45°27' E 012°16'0 0.0
2016-Feb-02 21:33N 45°27' E 012°16'0 0.0
2016-Feb-02 20:33N 45°27' E 012°16'0 0.0
2016-Feb-02 19:33N 45°27' E 012°16'0 0.0
2016-Feb-02 18:30N 45°27' E 012°16'0 0.0
2016-Feb-02 17:27N 45°27' E 012°16'0 0.0
2016-Feb-02 16:33N 45°27' E 012°16'0 0.0
2016-Feb-02 15:33N 45°27' E 012°16'0 0.0
2016-Feb-02 14:33N 45°27' E 012°16'0 0.0
2016-Feb-02 13:33N 45°27' E 012°16'0 0.0
2016-Feb-02 12:30N 45°27' E 012°16'0 0.0
2016-Feb-02 11:33N 45°27' E 012°16'0 0.0
2016-Feb-02 10:33N 45°27' E 012°16'0 0.0
2016-Feb-02 09:27N 45°27' E 012°16'0 0.0
2016-Feb-02 08:33N 45°27' E 012°16'0 0.0
2016-Feb-02 00:33N 45°27' E 012°16'0 0.0
2016-Feb-01 23:33N 45°27' E 012°16'0 0.0
2016-Feb-01 22:33N 45°27' E 012°16'0 0.0
2016-Feb-01 21:33N 45°27' E 012°16'0 0.0
2016-Feb-01 20:27N 45°27' E 012°16'0 0.0
2016-Feb-01 19:33N 45°27' E 012°16'0 0.0
2016-Feb-01 18:33N 45°27' E 012°16'0 0.0
2016-Feb-01 17:30N 45°27' E 012°16'0 0.0
2016-Feb-01 16:33N 45°27' E 012°16'0 0.0
2016-Feb-01 15:33N 45°27' E 012°16'0 0.0
2016-Feb-01 14:33N 45°27' E 012°16'0 0.0
2016-Feb-01 13:30N 45°27' E 012°16'0 0.2
2016-Feb-01 12:33N 45°27' E 012°16'7 6.9
2016-Feb-01 11:33N 45°21' E 012°17'5 5.1
2016-Feb-01 10:32N 45°20' E 012°25'0 0.1
2016-Feb-01 09:32N 45°20' E 012°25'0 0.0
2016-Feb-01 08:32N 45°20' E 012°25'0 0.0
2016-Feb-01 07:32N 45°20' E 012°25'0 0.0
2016-Feb-01 06:32N 45°20' E 012°25'0 0.0
2016-Feb-01 05:32N 45°20' E 012°25'0 0.0
2016-Feb-01 04:32N 45°20' E 012°25'0 0.0
2016-Feb-01 03:32N 45°20' E 012°25'0 0.0
2016-Feb-01 02:29N 45°20' E 012°25'0 0.0
2016-Feb-01 01:32N 45°20' E 012°25'0 0.0
2016-Feb-01 00:32N 45°20' E 012°25'0 0.0
2016-Jan-31 23:32N 45°20' E 012°25'0 0.0
2016-Jan-31 22:32N 45°20' E 012°25'0 0.0
2016-Jan-31 21:32N 45°20' E 012°25'0 0.0
2016-Jan-31 20:29N 45°20' E 012°25'0 0.0
2016-Jan-31 19:32N 45°20' E 012°25'0 0.0
2016-Jan-31 18:32N 45°20' E 012°25'0 0.0
2016-Jan-31 17:32N 45°20' E 012°25'0 0.1
2016-Jan-31 16:32N 45°20' E 012°25'1 0.8
2016-Jan-31 15:34N 45°20' E 012°26'1010.5
2016-Jan-31 14:34N 45°14' E 012°38'1513.5
2016-Jan-31 13:29N 45°03' E 012°51'1313.8
2016-Jan-31 12:33N 44°51' E 012°58'43910.7
2016-Jan-29 19:25N 37°51' E 015°48'1313.4
2016-Jan-29 18:29N 37°58' E 015°35'1414.5
2016-Jan-29 17:30N 38°13' E 015°36'8 7.9
2016-Jan-29 16:32N 38°20' E 015°34'1313.6
2016-Jan-29 15:33N 38°15' E 015°18'3 2.3
2016-Jan-29 14:23N 38°13' E 015°16'0 0.0
2016-Jan-29 12:11N 38°13' E 015°16'0 0.0
2016-Jan-29 11:29N 38°13' E 015°16'0 0.0
2016-Jan-29 08:05N 38°13' E 015°16'0 0.0
2016-Jan-29 07:29N 38°13' E 015°16'0 0.0
2016-Jan-29 06:29N 38°13' E 015°16'0 0.0
2016-Jan-29 05:29N 38°13' E 015°16'0 0.0
2016-Jan-29 04:29N 38°13' E 015°16'0 0.0
2016-Jan-29 03:17N 38°13' E 015°16'0 0.0
2016-Jan-29 02:29N 38°13' E 015°16'0 0.0
2016-Jan-29 01:11N 38°13' E 015°16'0 0.0
2016-Jan-29 00:23N 38°13' E 015°16'0 0.0
2016-Jan-28 23:29N 38°13' E 015°16'0 0.0
2016-Jan-28 22:29N 38°13' E 015°16'0 0.0
2016-Jan-28 21:29N 38°13' E 015°16'0 0.0
2016-Jan-28 20:29N 38°13' E 015°16'0 0.0
2016-Jan-28 19:29N 38°13' E 015°16'0 0.0
2016-Jan-28 18:23N 38°13' E 015°16'0 0.0
2016-Jan-28 17:23N 38°13' E 015°16'0 0.0
2016-Jan-28 16:29N 38°13' E 015°16'0 0.0
2016-Jan-28 15:29N 38°13' E 015°16'0 0.0
2016-Jan-28 14:32N 38°13' E 015°16'1 1.3
2016-Jan-28 13:29N 38°13' E 015°18'0 0.0
2016-Jan-28 12:29N 38°13' E 015°18'0 0.0
2016-Jan-28 11:29N 38°13' E 015°18'0 0.0
2016-Jan-28 10:29N 38°13' E 015°18'0 0.0
2016-Jan-28 09:29N 38°13' E 015°18'  
Track history (hours):
 
Tides and Currents Weather Stations Pressure Air Temp Water Temp Dewpoint Dewpoint Depression Visibility Wind Speed Wind Dir Waves Ship Positions

White Point

Last reported at 2016-Feb-07 09:28 UTC. Time now 2016-Feb-10 12:57 UTC.
Position N 44°28' E 012°33'.

Length 183 m; draft 1.1 m.

Type: Ship (hazmat cat D). MMSI: 247087400.

Date/timePositionNaut miles runAvg speedWind from/ knotsBaromVisibWave heightAir tempDewpointWater temp
2016-Feb-07 09:28N 44°28' E 012°33'1112.2
2016-Feb-07 08:33N 44°30' E 012°17'3 0.2
2016-Feb-06 17:16N 44°27' E 012°15'30 7.1
2016-Feb-06 13:06N 44°48' E 012°44'814.2
2016-Feb-06 12:33N 44°55' E 012°47'1313.5
2016-Feb-06 11:33N 45°07' E 012°39'1413.6
2016-Feb-06 10:33N 45°17' E 012°26'10 9.9
2016-Feb-06 09:33N 45°24' E 012°16'3 2.8
2016-Feb-06 08:32N 45°26' E 012°14'0 0.0
2016-Feb-06 07:33N 45°26' E 012°14'0 0.0
2016-Feb-06 06:33N 45°26' E 012°14'0 0.0
2016-Feb-06 05:33N 45°26' E 012°14'0 0.0
2016-Feb-06 04:34N 45°26' E 012°14'0 0.0
2016-Feb-06 03:33N 45°26' E 012°14'0 0.0
2016-Feb-06 02:34N 45°26' E 012°14'0 0.0
2016-Feb-06 01:33N 45°26' E 012°14'0 0.0
2016-Feb-06 00:33N 45°26' E 012°14'0 0.0
2016-Feb-05 23:34N 45°26' E 012°14'0 0.0
2016-Feb-05 22:33N 45°26' E 012°14'0 0.0
2016-Feb-05 21:33N 45°26' E 012°14'0 0.0
2016-Feb-05 20:33N 45°26' E 012°14'0 0.0
2016-Feb-05 19:33N 45°26' E 012°14'0 0.0
2016-Feb-05 18:34N 45°26' E 012°14'0 0.0
2016-Feb-05 17:34N 45°26' E 012°14'0 0.0
2016-Feb-05 16:34N 45°26' E 012°14'0 0.0
2016-Feb-05 15:34N 45°26' E 012°14'0 0.0
2016-Feb-05 14:33N 45°26' E 012°14'0 0.0
2016-Feb-05 13:33N 45°26' E 012°14'0 0.0
2016-Feb-05 12:33N 45°26' E 012°14'0 0.0
2016-Feb-05 11:33N 45°26' E 012°14'0 0.0
2016-Feb-05 10:33N 45°26' E 012°14'0 0.0
2016-Feb-05 09:33N 45°26' E 012°14'0 0.0
2016-Feb-05 08:33N 45°26' E 012°14'0 0.0
2016-Feb-05 07:33N 45°26' E 012°14'5 5.2
2016-Feb-05 06:33N 45°21' E 012°15'6 5.9
2016-Feb-05 05:32N 45°20' E 012°24'0 0.0
2016-Feb-05 04:32N 45°20' E 012°24'0 0.0
2016-Feb-05 03:32N 45°20' E 012°24'0 0.0
2016-Feb-05 02:29N 45°20' E 012°24'0 0.0
2016-Feb-05 01:32N 45°20' E 012°24'0 0.0
2016-Feb-05 00:33N 45°20' E 012°24'0 0.0
2016-Feb-04 23:32N 45°20' E 012°24'0 0.0
2016-Feb-04 22:32N 45°20' E 012°24'0 0.0
2016-Feb-04 21:32N 45°20' E 012°24'0 0.0
2016-Feb-04 20:32N 45°20' E 012°24'0 0.0
2016-Feb-04 19:32N 45°20' E 012°24'0 0.0
2016-Feb-04 18:32N 45°20' E 012°24'0 0.0
2016-Feb-04 17:32N 45°20' E 012°24'0 0.0
2016-Feb-04 16:32N 45°20' E 012°24'0 0.0
2016-Feb-04 15:32N 45°20' E 012°24'0 0.0
2016-Feb-04 14:32N 45°20' E 012°24'0 0.0
2016-Feb-04 13:32N 45°20' E 012°24'0 0.1
2016-Feb-04 12:20N 45°20' E 012°24'0 0.1
2016-Feb-04 11:32N 45°20' E 012°24'2 2.1
2016-Feb-04 10:34N 45°18' E 012°24'9 8.5
2016-Feb-04 09:33N 45°24' E 012°16'3 3.2
2016-Feb-04 08:33N 45°27' E 012°16'0 0.0
2016-Feb-04 07:33N 45°27' E 012°16'0 0.0
2016-Feb-04 06:33N 45°27' E 012°16'0 0.0
2016-Feb-04 05:33N 45°27' E 012°16'0 0.0
2016-Feb-04 04:33N 45°27' E 012°16'0 0.0
2016-Feb-04 03:33N 45°27' E 012°16'0 0.0
2016-Feb-04 02:33N 45°27' E 012°16'0 0.0
2016-Feb-04 01:33N 45°27' E 012°16'0 0.0
2016-Feb-04 00:33N 45°27' E 012°16'0 0.0
2016-Feb-03 23:33N 45°27' E 012°16'0 0.0
2016-Feb-03 22:33N 45°27' E 012°16'0 0.0
2016-Feb-03 21:33N 45°27' E 012°16'0 0.0
2016-Feb-03 20:33N 45°27' E 012°16'0 0.0
2016-Feb-03 19:33N 45°27' E 012°16'0 0.0
2016-Feb-03 18:33N 45°27' E 012°16'0 0.0
2016-Feb-03 17:33N 45°27' E 012°16'0 0.0
2016-Feb-03 16:33N 45°27' E 012°16'0 0.0
2016-Feb-03 15:33N 45°27' E 012°16'0 0.0
2016-Feb-03 14:33N 45°27' E 012°16'0 0.0
2016-Feb-03 13:33N 45°27' E 012°16'0 0.0
2016-Feb-03 12:30N 45°27' E 012°16'0 0.0
2016-Feb-03 11:33N 45°27' E 012°16'0 0.0
2016-Feb-03 09:30N 45°27' E 012°16'0 0.0
2016-Feb-03 08:33N 45°27' E 012°16'0 0.0
2016-Feb-03 07:30N 45°27' E 012°16'0 0.0
2016-Feb-03 06:33N 45°27' E 012°16'0 0.0
2016-Feb-03 05:33N 45°27' E 012°16'0 0.0
2016-Feb-03 04:33N 45°27' E 012°16'0 0.0
2016-Feb-03 03:33N 45°27' E 012°16'0 0.0
2016-Feb-03 02:33N 45°27' E 012°16'0 0.0
2016-Feb-03 01:33N 45°27' E 012°16'0 0.0
2016-Feb-03 00:33N 45°27' E 012°16'0 0.0
2016-Feb-02 23:33N 45°27' E 012°16'0 0.0
2016-Feb-02 22:33N 45°27' E 012°16'0 0.0
2016-Feb-02 21:33N 45°27' E 012°16'0 0.0
2016-Feb-02 20:33N 45°27' E 012°16'0 0.0
2016-Feb-02 19:33N 45°27' E 012°16'0 0.0
2016-Feb-02 18:30N 45°27' E 012°16'0 0.0
2016-Feb-02 17:27N 45°27' E 012°16'0 0.0
2016-Feb-02 16:33N 45°27' E 012°16'0 0.0
2016-Feb-02 15:33N 45°27' E 012°16'0 0.0
2016-Feb-02 14:33N 45°27' E 012°16'0 0.0
2016-Feb-02 13:33N 45°27' E 012°16'0 0.0
2016-Feb-02 12:30N 45°27' E 012°16'0 0.0
2016-Feb-02 11:33N 45°27' E 012°16'0 0.0
2016-Feb-02 10:33N 45°27' E 012°16'0 0.0
2016-Feb-02 09:27N 45°27' E 012°16'0 0.0
2016-Feb-02 08:33N 45°27' E 012°16'0 0.0
2016-Feb-02 00:33N 45°27' E 012°16'0 0.0
2016-Feb-01 23:33N 45°27' E 012°16'0 0.0
2016-Feb-01 22:33N 45°27' E 012°16'0 0.0
2016-Feb-01 21:33N 45°27' E 012°16'0 0.0
2016-Feb-01 20:27N 45°27' E 012°16'0 0.0
2016-Feb-01 19:33N 45°27' E 012°16'0 0.0
2016-Feb-01 18:33N 45°27' E 012°16'0 0.0
2016-Feb-01 17:30N 45°27' E 012°16'0 0.0
2016-Feb-01 16:33N 45°27' E 012°16'0 0.0
2016-Feb-01 15:33N 45°27' E 012°16'0 0.0
2016-Feb-01 14:33N 45°27' E 012°16'0 0.0
2016-Feb-01 13:30N 45°27' E 012°16'0 0.2
2016-Feb-01 12:33N 45°27' E 012°16'7 6.9
2016-Feb-01 11:33N 45°21' E 012°17'5 5.1
2016-Feb-01 10:32N 45°20' E 012°25'0 0.1
2016-Feb-01 09:32N 45°20' E 012°25'0 0.0
2016-Feb-01 08:32N 45°20' E 012°25'0 0.0
2016-Feb-01 07:32N 45°20' E 012°25'0 0.0
2016-Feb-01 06:32N 45°20' E 012°25'0 0.0
2016-Feb-01 05:32N 45°20' E 012°25'0 0.0
2016-Feb-01 04:32N 45°20' E 012°25'0 0.0
2016-Feb-01 03:32N 45°20' E 012°25'0 0.0
2016-Feb-01 02:29N 45°20' E 012°25'0 0.0
2016-Feb-01 01:32N 45°20' E 012°25'0 0.0
2016-Feb-01 00:32N 45°20' E 012°25'0 0.0
2016-Jan-31 23:32N 45°20' E 012°25'0 0.0
2016-Jan-31 22:32N 45°20' E 012°25'0 0.0
2016-Jan-31 21:32N 45°20' E 012°25'0 0.0
2016-Jan-31 20:29N 45°20' E 012°25'0 0.0
2016-Jan-31 19:32N 45°20' E 012°25'0 0.0
2016-Jan-31 18:32N 45°20' E 012°25'0 0.0
2016-Jan-31 17:32N 45°20' E 012°25'0 0.1
2016-Jan-31 16:32N 45°20' E 012°25'1 0.8
2016-Jan-31 15:34N 45°20' E 012°26'1010.5
2016-Jan-31 14:34N 45°14' E 012°38'1513.5
2016-Jan-31 13:29N 45°03' E 012°51'1313.8
2016-Jan-31 12:33N 44°51' E 012°58'43910.7
2016-Jan-29 19:25N 37°51' E 015°48'1313.4
2016-Jan-29 18:29N 37°58' E 015°35'1414.5
2016-Jan-29 17:30N 38°13' E 015°36'8 7.9
2016-Jan-29 16:32N 38°20' E 015°34'1313.6
2016-Jan-29 15:33N 38°15' E 015°18'3 2.3
2016-Jan-29 14:23N 38°13' E 015°16'0 0.0
2016-Jan-29 12:11N 38°13' E 015°16'0 0.0
2016-Jan-29 11:29N 38°13' E 015°16'0 0.0
2016-Jan-29 08:05N 38°13' E 015°16'0 0.0
2016-Jan-29 07:29N 38°13' E 015°16'0 0.0
2016-Jan-29 06:29N 38°13' E 015°16'0 0.0
2016-Jan-29 05:29N 38°13' E 015°16'0 0.0
2016-Jan-29 04:29N 38°13' E 015°16'0 0.0
2016-Jan-29 03:17N 38°13' E 015°16'0 0.0
2016-Jan-29 02:29N 38°13' E 015°16'0 0.0
2016-Jan-29 01:11N 38°13' E 015°16'0 0.0
2016-Jan-29 00:23N 38°13' E 015°16'0 0.0
2016-Jan-28 23:29N 38°13' E 015°16'0 0.0
2016-Jan-28 22:29N 38°13' E 015°16'0 0.0
2016-Jan-28 21:29N 38°13' E 015°16'0 0.0
2016-Jan-28 20:29N 38°13' E 015°16'0 0.0
2016-Jan-28 19:29N 38°13' E 015°16'0 0.0
2016-Jan-28 18:23N 38°13' E 015°16'0 0.0
2016-Jan-28 17:23N 38°13' E 015°16'0 0.0
2016-Jan-28 16:29N 38°13' E 015°16'0 0.0
2016-Jan-28 15:29N 38°13' E 015°16'0 0.0
2016-Jan-28 14:32N 38°13' E 015°16'1 1.3
2016-Jan-28 13:29N 38°13' E 015°18'0 0.0
2016-Jan-28 12:29N 38°13' E 015°18'0 0.0
2016-Jan-28 11:29N 38°13' E 015°18'0 0.0
2016-Jan-28 10:29N 38°13' E 015°18'0 0.0
2016-Jan-28 09:29N 38°13' E 015°18'  

Dump ship's entire track history